GCJSA / G-CJSA 7700 Squawk Report (8th of January, 2019)

Time Lat Lon Altitude Heading Speed Vertical Rate
2019-01-08 13:47:47 GMT 51.513596 -0.871616 2,600 84 107 -300
2019-01-08 13:47:34 GMT 51.512096 -0.884177 2,600 86 89 0
2019-01-08 13:47:23 GMT 51.510853 -0.894206 2,600 77 152 300
2019-01-08 13:47:11 GMT 51.509968 -0.905152 2,700 88 147 300
2019-01-08 13:47:00 GMT 51.508850 -0.915189 2,700 78 116 0
2019-01-08 13:46:48 GMT 51.507133 -0.926595 2,600 81 157 0
2019-01-08 13:46:37 GMT 51.505974 -0.936871 2,600 75 117 0
2019-01-08 13:46:27 GMT 51.505074 -0.946461 2,600 85 135 -180
2019-01-08 13:46:15 GMT 51.504311 -0.957800 2,600 82 120 0
2019-01-08 13:46:00 GMT 51.502674 -0.971418 2,600 68 121 120
2019-01-08 13:45:47 GMT 51.500237 -0.982399 2,700 72 117 180
2019-01-08 13:45:18 GMT 51.494087 -1.015462 2,600 73 109 -60
2019-01-08 13:45:07 GMT 51.494087 -1.015462 2,600 88 120 0
2019-01-08 13:44:50 GMT 51.493813 -1.030728 2,500 179 55 -120
We lost coverage of the aircraft here for a total of 8 minutes
2019-01-08 13:36:43 GMT 51.369095 -1.261934 3,000 179 55 -120
2019-01-08 13:36:23 GMT 51.373440 -1.263772 3,100 94 39 1080
2019-01-08 13:36:13 GMT 51.373577 -1.266692 3,000 21 73 -540
2019-01-08 13:36:03 GMT 51.370419 -1.268666 2,400 146 36 -1200
2019-01-08 13:35:53 GMT 51.372513 -1.271947 3,300 126 117 -300
2019-01-08 13:35:40 GMT 51.378120 -1.291280 2,500 248 25 1380
2019-01-08 13:35:30 GMT 51.378120 -1.291280 3,700 248 25 1380
2019-01-08 13:35:11 GMT 51.379162 -1.288585 3,800 287 42 -600
2019-01-08 13:34:53 GMT 51.378433 -1.280612 3,500 304 128 -2400
2019-01-08 13:34:41 GMT 51.374847 -1.274694 3,600 309 90 -1260
2019-01-08 13:34:25 GMT 51.373341 -1.271670 3,900 280 60 -480
2019-01-08 13:34:14 GMT 51.372986 -1.268679 3,800 246 16 -480
2019-01-08 13:33:58 GMT 51.373425 -1.269945 4,100 259 97 -240
2019-01-08 13:33:46 GMT 51.374096 -1.266318 4,000 199 10 1500
2019-01-08 13:33:31 GMT 51.374470 -1.263158 4,000 247 51 -240
2019-01-08 13:33:15 GMT 51.374397 -1.253135 3,200 322 102 660
2019-01-08 13:33:02 GMT 51.357704 -1.238176 3,400 306 122 960
2019-01-08 13:32:37 GMT 51.357704 -1.238176 3,100 295 123 960
2019-01-08 13:32:25 GMT 51.354263 -1.229708 3,000 304 125 660
2019-01-08 13:32:13 GMT 51.350647 -1.220904 2,800 312 96 660
2019-01-08 13:32:03 GMT 51.347469 -1.214211 2,700 292 121 840
2019-01-08 13:31:48 GMT 51.344711 -1.200999 2,500 267 166 900
2019-01-08 13:31:37 GMT 51.344559 -1.191250 2,400 282 132 660
2019-01-08 13:31:24 GMT 51.343014 -1.179381 2,200 286 119
2019-01-08 13:31:14 GMT 51.341396 -1.170908 2,200 290 113
2019-01-08 13:30:57 GMT 51.338192 -1.157536 2,000 294 127

Making use of Plane Finder data

You are free to use the raw flight data, aircraft information and images provided in this report for your own purposes provided the data is correctly attributed to Plane Finder. We ask that you please credit Plane Finder and link to planefinder.net in close proximity to the content.

Optionally one of the following logos (no smaller then 150x24px) can be used and must link to planefinder.net

Embedding the Plane Finder map

You are welcome to embed the Plane Finder playback map on your website to offer visitors a more interactive experience. We suggest using the following HTML code:

<iframe src="//planefinder.net/data/report/GCJSA-G-CJSA-7700-squawk-2019-01-08/map" width="800" height="600" seamless="seamless"></iframe>

Where our data comes from

Plane Finder has a global network of data feeds and antenna radars that receive data broadcast directly from aircraft. The primary technologies used are ADS-B and MLAT. We also show feeds from the FAA and a FLARM glider feed.

Click here to find out more about the Plane Finder network.

How we collect our data